Tanti, Argentina
Current Conditions -  °F | °C
As of 2:00 PM on Monday 24 Nov 2014 (Local Time) from SACO Reporting Station
Broken Clouds Broken Clouds  
Wind Chill: 72°   Ceiling: 2500
Heat Index: 72°   Visibility: 6mi
Dew Point: 43°   Wind: 16mph
Humidity: 35%   Direction: 180°S
Pressure: 29.94"   Gusts: 29mph
Location:  31.33°S, 64.6°W
Report Text: SACO 241700Z 18014G25KT 9999 BKN025SCT030 22/06 Q1014
Loading
Personal Weather Stations






























Interactive Weather Map New forecast layout! Learn more

10-Day Weather Forecast

Advertisements
Track Severe Weather on mobile